CMA CGM Maupassant — 2DSD6 — position and weather

sailwx.info

Track history (hours):
 
Tides and Currents Weather Stations Pressure Air Temp Water Temp Dewpoint Dewpoint Depression Visibility Wind Speed Wind Dir Waves Ship Positions

CMA CGM Maupassant

Last reported at 2017-Oct-08 01:30 UTC. Time now 2017-Oct-19 01:44 UTC.
Position N 36°21' E 014°38'.
Warning: this ship's position is 11 days out of date.

Length 299 m; draft 13.2 m.

Type: Ship (hazmat cat A). MMSI: 235081604.

Date/timePositionNaut miles runAvg speedWind from/ knotsBaromVisibWave heightAir tempDewpointWater temp
2017-Oct-08 01:30N 36°21' E 014°38'919.1
2017-Oct-08 01:00N 36°23' E 014°27'1019.2
2017-Oct-08 00:30N 36°26' E 014°16'919.0
2017-Oct-08 00:00N 36°29' E 014°05'1019.0
2017-Oct-07 23:30N 36°32' E 013°53'1018.9
2017-Oct-07 23:00N 36°35' E 013°42'62018.0
2017-Oct-06 12:37N 36°40' E 000°50'1719.0
2017-Oct-06 11:43N 36°37' E 000°29'419.1
2017-Oct-06 11:30N 36°36' E 000°24'4719.3
2017-Oct-06 09:03N 36°28' W 000°34'119.7
2017-Oct-06 09:00N 36°28' W 000°35'1019.7
2017-Oct-06 08:30N 36°27' W 000°47'1120.0
2017-Oct-06 07:57N 36°25' W 001°01'1720.0
2017-Oct-06 07:06N 36°22' W 001°21'220.1
2017-Oct-06 07:00N 36°22' W 001°24'5720.1
2017-Oct-06 04:10N 36°13' W 002°34'419.6
2017-Oct-06 03:58N 36°12' W 002°39'12419.5
2017-Oct-05 21:39N 36°00' W 005°11'320.1
2017-Oct-05 21:30N 35°60' W 005°14'1020.4
2017-Oct-05 21:00N 35°58' W 005°27'1119.3
2017-Oct-05 20:28N 35°55' W 005°39'918.4
2017-Oct-05 19:58N 35°55' W 005°51'918.5
2017-Oct-05 19:29N 35°54' W 006°02'9118.0
2017-Oct-05 14:26N 35°57' W 007°54'3018.4
2017-Oct-05 12:47N 35°58' W 008°32'518.5
2017-Oct-05 12:30N 35°60' W 008°37'918.2
2017-Oct-05 12:00N 36°00' W 008°49'1018.8
2017-Oct-05 11:30N 36°01' W 009°00'1518.8
2017-Oct-05 10:42N 36°02' W 009°19'2318.5
2017-Oct-05 09:26N 36°04' W 009°48'818.1
2017-Oct-05 08:59N 36°05' W 009°58'3818.1
2017-Oct-05 06:52N 36°13' W 010°44'718.4
2017-Oct-05 06:29N 36°15' W 010°53'918.4
2017-Oct-05 06:00N 36°17' W 011°03'918.4
2017-Oct-05 05:30N 36°19' W 011°14'1118.3
2017-Oct-05 04:54N 36°21' W 011°28'718.5
2017-Oct-05 04:30N 36°23' W 011°37'918.5
2017-Oct-05 04:00N 36°25' W 011°48'918.2
2017-Oct-05 03:30N 36°27' W 011°59'1018.2
2017-Oct-05 02:58N 36°29' W 012°11'818.5
2017-Oct-05 02:30N 36°31' W 012°21'918.7
2017-Oct-05 02:00N 36°33' W 012°33'918.6
2017-Oct-05 01:30N 36°35' W 012°44'918.5
2017-Oct-05 01:00N 36°37' W 012°55'918.6
2017-Oct-05 00:30N 36°39' W 013°06'1018.7
2017-Oct-05 00:00N 36°41' W 013°18'918.9
2017-Oct-04 23:30N 36°43' W 013°29'918.9
2017-Oct-04 23:00N 36°46' W 013°41'918.9
2017-Oct-04 22:30N 36°47' W 013°52'918.8
2017-Oct-04 22:00N 36°50' W 014°04'1018.9
2017-Oct-04 21:30N 36°52' W 014°15'918.6
2017-Oct-04 21:00N 36°54' W 014°27'918.7
2017-Oct-04 20:30N 36°56' W 014°38'918.4
2017-Oct-04 20:00N 36°58' W 014°49'917.9
2017-Oct-04 19:30N 36°60' W 015°00'1018.0
2017-Oct-04 18:58N 37°01' W 015°12'918.1
2017-Oct-04 18:30N 37°02' W 015°23'1018.3
2017-Oct-04 17:59N 37°02' W 015°35'918.3
2017-Oct-04 17:28N 37°03' W 015°46'918.3
2017-Oct-04 17:00N 37°04' W 015°57'918.0
2017-Oct-04 16:30N 37°05' W 016°08'918.2
2017-Oct-04 16:00N 37°06' W 016°19'918.2
2017-Oct-04 15:30N 37°06' W 016°31'1918.2
2017-Oct-04 14:27N 37°08' W 016°55'1118.2
2017-Oct-04 13:50N 37°09' W 017°09'1418.6
2017-Oct-04 13:05N 37°10' W 017°26'218.6
2017-Oct-04 12:58N 37°10' W 017°29'918.7
2017-Oct-04 12:29N 37°11' W 017°40'4518.5
2017-Oct-04 10:01N 37°15' W 018°37'020.0
2017-Oct-04 10:00N 37°15' W 018°38'1018.3
2017-Oct-04 09:28N 37°16' W 018°50'1018.5
2017-Oct-04 08:57N 37°17' W 019°02'1418.1
2017-Oct-04 08:12N 37°18' W 019°19'418.3
2017-Oct-04 07:58N 37°18' W 019°24'918.3
2017-Oct-04 07:29N 37°19' W 019°36'918.0
2017-Oct-04 06:58N 37°20' W 019°47'1018.1
2017-Oct-04 06:24N 37°21' W 019°60'818.0
2017-Oct-04 05:58N 37°21' W 020°10'1518.1
2017-Oct-04 05:09N 37°21' W 020°28'3218.1
2017-Oct-04 03:22N 37°22' W 021°09'718.5
2017-Oct-04 02:58N 37°23' W 021°18'918.2
2017-Oct-04 02:29N 37°23' W 021°29'2418.1
2017-Oct-04 01:11N 37°24' W 021°59'318.7
2017-Oct-04 01:00N 37°24' W 022°03'1018.4
2017-Oct-04 00:28N 37°24' W 022°16'1018.4
2017-Oct-03 23:54N 37°24' W 022°29'818.7
2017-Oct-03 23:27N 37°24' W 022°39'818.7
2017-Oct-03 23:00N 37°25' W 022°50'1418.9
2017-Oct-03 22:14N 37°25' W 023°08'1518.6
2017-Oct-03 21:25N 37°26' W 023°27'818.5
2017-Oct-03 21:00N 37°26' W 023°37'918.5
2017-Oct-03 20:30N 37°26' W 023°49'918.8
2017-Oct-03 20:00N 37°26' W 024°00'918.8
2017-Oct-03 19:30N 37°27' W 024°12'918.8
2017-Oct-03 19:00N 37°27' W 024°24'918.8
2017-Oct-03 18:30N 37°27' W 024°36'918.3
2017-Oct-03 18:01N 37°28' W 024°47'918.5
2017-Oct-03 17:30N 37°28' W 024°59'918.6
2017-Oct-03 17:00N 37°28' W 025°11'918.6
2017-Oct-03 16:31N 37°27' W 025°22'918.6
2017-Oct-03 16:00N 37°27' W 025°34'918.3
2017-Oct-03 15:30N 37°27' W 025°46'918.2
2017-Oct-03 15:00N 37°27' W 025°57'1918.6
2017-Oct-03 14:00N 37°26' W 026°20'1019.1
2017-Oct-03 13:30N 37°26' W 026°33'918.9
2017-Oct-03 13:00N 37°26' W 026°44'918.3
2017-Oct-03 12:30N 37°26' W 026°56'918.2
2017-Oct-03 12:00N 37°26' W 027°07'918.7
2017-Oct-03 11:30N 37°26' W 027°19'1018.7
2017-Oct-03 10:58N 37°25' W 027°32'918.7
2017-Oct-03 10:28N 37°25' W 027°44'918.7
2017-Oct-03 10:00N 37°25' W 027°54'919.0
2017-Oct-03 09:31N 37°25' W 028°06'1018.7
2017-Oct-03 08:57N 37°24' W 028°19'918.6
2017-Oct-03 08:27N 37°24' W 028°31'818.6
2017-Oct-03 08:00N 37°24' W 028°42'918.4
2017-Oct-03 07:30N 37°24' W 028°53'918.5
2017-Oct-03 07:00N 37°24' W 029°05'918.4
2017-Oct-03 06:30N 37°23' W 029°16'918.8
2017-Oct-03 06:00N 37°23' W 029°28'918.7
2017-Oct-03 05:30N 37°23' W 029°40'918.4
2017-Oct-03 05:00N 37°23' W 029°52'1018.4
2017-Oct-03 04:29N 37°22' W 030°04'1318.9
2017-Oct-03 03:46N 37°21' W 030°21'518.5
2017-Oct-03 03:30N 37°21' W 030°27'918.8
2017-Oct-03 03:00N 37°20' W 030°38'1418.8
2017-Oct-03 02:16N 37°19' W 030°56'818.9
2017-Oct-03 01:52N 37°19' W 031°06'818.9
2017-Oct-03 01:28N 37°18' W 031°15'  
Track history (hours):
 
Tides and Currents Weather Stations Pressure Air Temp Water Temp Dewpoint Dewpoint Depression Visibility Wind Speed Wind Dir Waves Ship Positions

CMA CGM Maupassant

Last reported at 2017-Oct-08 01:30 UTC. Time now 2017-Oct-19 01:44 UTC.
Position N 36°21' E 014°38'.
Warning: this ship's position is 11 days out of date.

Length 299 m; draft 13.2 m.

Type: Ship (hazmat cat A). MMSI: 235081604.

Date/timePositionNaut miles runAvg speedWind from/ knotsBaromVisibWave heightAir tempDewpointWater temp
2017-Oct-08 01:30N 36°21' E 014°38'919.1
2017-Oct-08 01:00N 36°23' E 014°27'1019.2
2017-Oct-08 00:30N 36°26' E 014°16'919.0
2017-Oct-08 00:00N 36°29' E 014°05'1019.0
2017-Oct-07 23:30N 36°32' E 013°53'1018.9
2017-Oct-07 23:00N 36°35' E 013°42'62018.0
2017-Oct-06 12:37N 36°40' E 000°50'1719.0
2017-Oct-06 11:43N 36°37' E 000°29'419.1
2017-Oct-06 11:30N 36°36' E 000°24'4719.3
2017-Oct-06 09:03N 36°28' W 000°34'119.7
2017-Oct-06 09:00N 36°28' W 000°35'1019.7
2017-Oct-06 08:30N 36°27' W 000°47'1120.0
2017-Oct-06 07:57N 36°25' W 001°01'1720.0
2017-Oct-06 07:06N 36°22' W 001°21'220.1
2017-Oct-06 07:00N 36°22' W 001°24'5720.1
2017-Oct-06 04:10N 36°13' W 002°34'419.6
2017-Oct-06 03:58N 36°12' W 002°39'12419.5
2017-Oct-05 21:39N 36°00' W 005°11'320.1
2017-Oct-05 21:30N 35°60' W 005°14'1020.4
2017-Oct-05 21:00N 35°58' W 005°27'1119.3
2017-Oct-05 20:28N 35°55' W 005°39'918.4
2017-Oct-05 19:58N 35°55' W 005°51'918.5
2017-Oct-05 19:29N 35°54' W 006°02'9118.0
2017-Oct-05 14:26N 35°57' W 007°54'3018.4
2017-Oct-05 12:47N 35°58' W 008°32'518.5
2017-Oct-05 12:30N 35°60' W 008°37'918.2
2017-Oct-05 12:00N 36°00' W 008°49'1018.8
2017-Oct-05 11:30N 36°01' W 009°00'1518.8
2017-Oct-05 10:42N 36°02' W 009°19'2318.5
2017-Oct-05 09:26N 36°04' W 009°48'818.1
2017-Oct-05 08:59N 36°05' W 009°58'3818.1
2017-Oct-05 06:52N 36°13' W 010°44'718.4
2017-Oct-05 06:29N 36°15' W 010°53'918.4
2017-Oct-05 06:00N 36°17' W 011°03'918.4
2017-Oct-05 05:30N 36°19' W 011°14'1118.3
2017-Oct-05 04:54N 36°21' W 011°28'718.5
2017-Oct-05 04:30N 36°23' W 011°37'918.5
2017-Oct-05 04:00N 36°25' W 011°48'918.2
2017-Oct-05 03:30N 36°27' W 011°59'1018.2
2017-Oct-05 02:58N 36°29' W 012°11'818.5
2017-Oct-05 02:30N 36°31' W 012°21'918.7
2017-Oct-05 02:00N 36°33' W 012°33'918.6
2017-Oct-05 01:30N 36°35' W 012°44'918.5
2017-Oct-05 01:00N 36°37' W 012°55'918.6
2017-Oct-05 00:30N 36°39' W 013°06'1018.7
2017-Oct-05 00:00N 36°41' W 013°18'918.9
2017-Oct-04 23:30N 36°43' W 013°29'918.9
2017-Oct-04 23:00N 36°46' W 013°41'918.9
2017-Oct-04 22:30N 36°47' W 013°52'918.8
2017-Oct-04 22:00N 36°50' W 014°04'1018.9
2017-Oct-04 21:30N 36°52' W 014°15'918.6
2017-Oct-04 21:00N 36°54' W 014°27'918.7
2017-Oct-04 20:30N 36°56' W 014°38'918.4
2017-Oct-04 20:00N 36°58' W 014°49'917.9
2017-Oct-04 19:30N 36°60' W 015°00'1018.0
2017-Oct-04 18:58N 37°01' W 015°12'918.1
2017-Oct-04 18:30N 37°02' W 015°23'1018.3
2017-Oct-04 17:59N 37°02' W 015°35'918.3
2017-Oct-04 17:28N 37°03' W 015°46'918.3
2017-Oct-04 17:00N 37°04' W 015°57'918.0
2017-Oct-04 16:30N 37°05' W 016°08'918.2
2017-Oct-04 16:00N 37°06' W 016°19'918.2
2017-Oct-04 15:30N 37°06' W 016°31'1918.2
2017-Oct-04 14:27N 37°08' W 016°55'1118.2
2017-Oct-04 13:50N 37°09' W 017°09'1418.6
2017-Oct-04 13:05N 37°10' W 017°26'218.6
2017-Oct-04 12:58N 37°10' W 017°29'918.7
2017-Oct-04 12:29N 37°11' W 017°40'4518.5
2017-Oct-04 10:01N 37°15' W 018°37'020.0
2017-Oct-04 10:00N 37°15' W 018°38'1018.3
2017-Oct-04 09:28N 37°16' W 018°50'1018.5
2017-Oct-04 08:57N 37°17' W 019°02'1418.1
2017-Oct-04 08:12N 37°18' W 019°19'418.3
2017-Oct-04 07:58N 37°18' W 019°24'918.3
2017-Oct-04 07:29N 37°19' W 019°36'918.0
2017-Oct-04 06:58N 37°20' W 019°47'1018.1
2017-Oct-04 06:24N 37°21' W 019°60'818.0
2017-Oct-04 05:58N 37°21' W 020°10'1518.1
2017-Oct-04 05:09N 37°21' W 020°28'3218.1
2017-Oct-04 03:22N 37°22' W 021°09'718.5
2017-Oct-04 02:58N 37°23' W 021°18'918.2
2017-Oct-04 02:29N 37°23' W 021°29'2418.1
2017-Oct-04 01:11N 37°24' W 021°59'318.7
2017-Oct-04 01:00N 37°24' W 022°03'1018.4
2017-Oct-04 00:28N 37°24' W 022°16'1018.4
2017-Oct-03 23:54N 37°24' W 022°29'818.7
2017-Oct-03 23:27N 37°24' W 022°39'818.7
2017-Oct-03 23:00N 37°25' W 022°50'1418.9
2017-Oct-03 22:14N 37°25' W 023°08'1518.6
2017-Oct-03 21:25N 37°26' W 023°27'818.5
2017-Oct-03 21:00N 37°26' W 023°37'918.5
2017-Oct-03 20:30N 37°26' W 023°49'918.8
2017-Oct-03 20:00N 37°26' W 024°00'918.8
2017-Oct-03 19:30N 37°27' W 024°12'918.8
2017-Oct-03 19:00N 37°27' W 024°24'918.8
2017-Oct-03 18:30N 37°27' W 024°36'918.3
2017-Oct-03 18:01N 37°28' W 024°47'918.5
2017-Oct-03 17:30N 37°28' W 024°59'918.6
2017-Oct-03 17:00N 37°28' W 025°11'918.6
2017-Oct-03 16:31N 37°27' W 025°22'918.6
2017-Oct-03 16:00N 37°27' W 025°34'918.3
2017-Oct-03 15:30N 37°27' W 025°46'918.2
2017-Oct-03 15:00N 37°27' W 025°57'1918.6
2017-Oct-03 14:00N 37°26' W 026°20'1019.1
2017-Oct-03 13:30N 37°26' W 026°33'918.9
2017-Oct-03 13:00N 37°26' W 026°44'918.3
2017-Oct-03 12:30N 37°26' W 026°56'918.2
2017-Oct-03 12:00N 37°26' W 027°07'918.7
2017-Oct-03 11:30N 37°26' W 027°19'1018.7
2017-Oct-03 10:58N 37°25' W 027°32'918.7
2017-Oct-03 10:28N 37°25' W 027°44'918.7
2017-Oct-03 10:00N 37°25' W 027°54'919.0
2017-Oct-03 09:31N 37°25' W 028°06'1018.7
2017-Oct-03 08:57N 37°24' W 028°19'918.6
2017-Oct-03 08:27N 37°24' W 028°31'818.6
2017-Oct-03 08:00N 37°24' W 028°42'918.4
2017-Oct-03 07:30N 37°24' W 028°53'918.5
2017-Oct-03 07:00N 37°24' W 029°05'918.4
2017-Oct-03 06:30N 37°23' W 029°16'918.8
2017-Oct-03 06:00N 37°23' W 029°28'918.7
2017-Oct-03 05:30N 37°23' W 029°40'918.4
2017-Oct-03 05:00N 37°23' W 029°52'1018.4
2017-Oct-03 04:29N 37°22' W 030°04'1318.9
2017-Oct-03 03:46N 37°21' W 030°21'518.5
2017-Oct-03 03:30N 37°21' W 030°27'918.8
2017-Oct-03 03:00N 37°20' W 030°38'1418.8
2017-Oct-03 02:16N 37°19' W 030°56'818.9
2017-Oct-03 01:52N 37°19' W 031°06'818.9
2017-Oct-03 01:28N 37°18' W 031°15'  

Dump ship's entire track history